sensor_id;sensor_type;location;lat;lon;timestamp;temperature;humidity
18513;DHT22;9385;48.380;9.744;2022-12-11T00:00:37;0.50;99.90
18513;DHT22;9385;48.380;9.744;2022-12-11T00:03:05;0.20;99.90
18513;DHT22;9385;48.380;9.744;2022-12-11T00:05:33;0.00;99.90
18513;DHT22;9385;48.380;9.744;2022-12-11T00:08:00;-0.30;99.90
18513;DHT22;9385;48.380;9.744;2022-12-11T00:10:27;-0.50;99.90
18513;DHT22;9385;48.380;9.744;2022-12-11T00:12:54;-0.60;99.90
18513;DHT22;9385;48.380;9.744;2022-12-11T00:15:21;-0.60;99.90
18513;DHT22;9385;48.380;9.744;2022-12-11T00:17:48;-0.60;99.90
18513;DHT22;9385;48.380;9.744;2022-12-11T00:20:15;-0.60;99.90
18513;DHT22;9385;48.380;9.744;2022-12-11T00:22:43;-0.70;99.90
18513;DHT22;9385;48.380;9.744;2022-12-11T00:25:10;-0.90;99.90
18513;DHT22;9385;48.380;9.744;2022-12-11T00:27:37;-1.10;99.90
18513;DHT22;9385;48.380;9.744;2022-12-11T00:30:05;-1.20;99.90
18513;DHT22;9385;48.380;9.744;2022-12-11T00:32:32;-1.30;99.90
18513;DHT22;9385;48.380;9.744;2022-12-11T00:34:59;-1.40;99.90
18513;DHT22;9385;48.380;9.744;2022-12-11T00:37:27;-1.50;99.90
18513;DHT22;9385;48.380;9.744;2022-12-11T00:39:55;-1.50;99.90
18513;DHT22;9385;48.380;9.744;2022-12-11T00:42:22;-1.40;99.90
18513;DHT22;9385;48.380;9.744;2022-12-11T00:44:49;-1.40;99.90
18513;DHT22;9385;48.380;9.744;2022-12-11T00:47:16;-1.50;99.90
18513;DHT22;9385;48.380;9.744;2022-12-11T00:49:43;-1.40;99.90
18513;DHT22;9385;48.380;9.744;2022-12-11T00:52:10;-1.40;99.90
18513;DHT22;9385;48.380;9.744;2022-12-11T00:54:37;-1.60;99.90
18513;DHT22;9385;48.380;9.744;2022-12-11T00:57:05;-1.50;99.90
18513;DHT22;9385;48.380;9.744;2022-12-11T00:59:32;-1.40;99.90
18513;DHT22;9385;48.380;9.744;2022-12-11T01:01:59;-1.40;99.90
18513;DHT22;9385;48.380;9.744;2022-12-11T01:04:26;-1.60;99.90
18513;DHT22;9385;48.380;9.744;2022-12-11T01:06:53;-1.70;99.90
18513;DHT22;9385;48.380;9.744;2022-12-11T01:09:20;-1.60;99.90
18513;DHT22;9385;48.380;9.744;2022-12-11T01:12:06;-1.60;99.90
18513;DHT22;9385;48.380;9.744;2022-12-11T01:14:33;-1.60;99.90
18513;DHT22;9385;48.380;9.744;2022-12-11T01:17:00;-1.70;99.90
18513;DHT22;9385;48.380;9.744;2022-12-11T01:19:26;-1.70;99.90
18513;DHT22;9385;48.380;9.744;2022-12-11T01:21:54;-1.80;99.90
18513;DHT22;9385;48.380;9.744;2022-12-11T01:24:20;-1.70;99.90
18513;DHT22;9385;48.380;9.744;2022-12-11T01:26:47;-1.70;99.90
18513;DHT22;9385;48.380;9.744;2022-12-11T01:29:16;-1.60;99.90
18513;DHT22;9385;48.380;9.744;2022-12-11T01:31:43;-1.40;99.90
18513;DHT22;9385;48.380;9.744;2022-12-11T01:34:10;-1.30;99.90
18513;DHT22;9385;48.380;9.744;2022-12-11T01:36:37;-1.40;99.90
18513;DHT22;9385;48.380;9.744;2022-12-11T01:39:03;-1.60;99.90
18513;DHT22;9385;48.380;9.744;2022-12-11T01:41:30;-1.70;99.90
18513;DHT22;9385;48.380;9.744;2022-12-11T01:44:04;-1.60;99.90
18513;DHT22;9385;48.380;9.744;2022-12-11T01:46:33;-1.40;99.90
18513;DHT22;9385;48.380;9.744;2022-12-11T01:49:03;-1.20;99.90
18513;DHT22;9385;48.380;9.744;2022-12-11T01:51:33;-1.10;99.90
18513;DHT22;9385;48.380;9.744;2022-12-11T01:54:06;-1.00;99.90
18513;DHT22;9385;48.380;9.744;2022-12-11T01:56:34;-0.90;99.90
18513;DHT22;9385;48.380;9.744;2022-12-11T01:59:04;-0.80;99.90
18513;DHT22;9385;48.380;9.744;2022-12-11T02:01:36;-0.70;99.90
18513;DHT22;9385;48.380;9.744;2022-12-11T02:04:05;-0.60;99.90
18513;DHT22;9385;48.380;9.744;2022-12-11T02:06:35;-0.50;99.90
18513;DHT22;9385;48.380;9.744;2022-12-11T02:09:04;-0.60;99.90
18513;DHT22;9385;48.380;9.744;2022-12-11T02:11:43;-0.50;99.90
18513;DHT22;9385;48.380;9.744;2022-12-11T02:14:19;-0.40;99.90
18513;DHT22;9385;48.380;9.744;2022-12-11T02:16:55;-0.30;99.90
18513;DHT22;9385;48.380;9.744;2022-12-11T02:19:43;-0.40;99.90
18513;DHT22;9385;48.380;9.744;2022-12-11T02:22:18;-0.40;99.90
18513;DHT22;9385;48.380;9.744;2022-12-11T02:24:57;-0.40;99.90
18513;DHT22;9385;48.380;9.744;2022-12-11T02:27:33;-0.50;99.90
18513;DHT22;9385;48.380;9.744;2022-12-11T02:30:06;-0.60;99.90
18513;DHT22;9385;48.380;9.744;2022-12-11T02:32:36;-0.70;99.90
18513;DHT22;9385;48.380;9.744;2022-12-11T02:35:09;-0.70;99.90
18513;DHT22;9385;48.380;9.744;2022-12-11T02:37:40;-0.70;99.90
18513;DHT22;9385;48.380;9.744;2022-12-11T02:40:11;-0.70;99.90
18513;DHT22;9385;48.380;9.744;2022-12-11T02:42:41;-0.70;99.90
18513;DHT22;9385;48.380;9.744;2022-12-11T02:45:11;-0.60;99.90
18513;DHT22;9385;48.380;9.744;2022-12-11T02:47:40;-0.50;99.90
18513;DHT22;9385;48.380;9.744;2022-12-11T02:50:14;-0.50;99.90
18513;DHT22;9385;48.380;9.744;2022-12-11T02:52:41;-0.50;99.90
18513;DHT22;9385;48.380;9.744;2022-12-11T02:55:10;-0.50;99.90
18513;DHT22;9385;48.380;9.744;2022-12-11T02:57:43;-0.50;99.90
18513;DHT22;9385;48.380;9.744;2022-12-11T03:00:13;-0.60;99.90
18513;DHT22;9385;48.380;9.744;2022-12-11T03:02:41;-0.60;99.90
18513;DHT22;9385;48.380;9.744;2022-12-11T03:05:11;-0.60;99.90
18513;DHT22;9385;48.380;9.744;2022-12-11T03:07:39;-0.60;99.90
18513;DHT22;9385;48.380;9.744;2022-12-11T03:10:11;-0.50;99.90
18513;DHT22;9385;48.380;9.744;2022-12-11T03:12:41;-0.40;99.90
18513;DHT22;9385;48.380;9.744;2022-12-11T03:15:12;-0.50;99.90
18513;DHT22;9385;48.380;9.744;2022-12-11T03:17:46;-0.50;99.90
18513;DHT22;9385;48.380;9.744;2022-12-11T03:20:22;-0.50;99.90
18513;DHT22;9385;48.380;9.744;2022-12-11T03:22:56;-0.60;99.90
18513;DHT22;9385;48.380;9.744;2022-12-11T03:25:32;-0.70;99.90
18513;DHT22;9385;48.380;9.744;2022-12-11T03:28:08;-0.70;99.90
18513;DHT22;9385;48.380;9.744;2022-12-11T03:30:38;-0.70;99.90
18513;DHT22;9385;48.380;9.744;2022-12-11T03:33:08;-0.80;99.90
18513;DHT22;9385;48.380;9.744;2022-12-11T03:35:38;-0.80;99.90
18513;DHT22;9385;48.380;9.744;2022-12-11T03:38:10;-0.80;99.90
18513;DHT22;9385;48.380;9.744;2022-12-11T03:40:39;-0.80;99.90
18513;DHT22;9385;48.380;9.744;2022-12-11T03:43:07;-0.60;99.90
18513;DHT22;9385;48.380;9.744;2022-12-11T03:45:38;-0.50;99.90
18513;DHT22;9385;48.380;9.744;2022-12-11T03:48:07;-0.50;99.90
18513;DHT22;9385;48.380;9.744;2022-12-11T03:50:36;-0.40;99.90
18513;DHT22;9385;48.380;9.744;2022-12-11T03:53:04;-0.40;99.90
18513;DHT22;9385;48.380;9.744;2022-12-11T03:55:32;-0.30;99.90
18513;DHT22;9385;48.380;9.744;2022-12-11T03:57:59;-0.30;99.90
18513;DHT22;9385;48.380;9.744;2022-12-11T04:00:26;-0.20;99.90
18513;DHT22;9385;48.380;9.744;2022-12-11T04:02:55;-0.10;99.90
18513;DHT22;9385;48.380;9.744;2022-12-11T04:05:41;-0.10;99.90
18513;DHT22;9385;48.380;9.744;2022-12-11T04:08:09;-0.20;99.90
18513;DHT22;9385;48.380;9.744;2022-12-11T04:10:36;-0.10;99.90
18513;DHT22;9385;48.380;9.744;2022-12-11T04:13:03;0.00;99.90
18513;DHT22;9385;48.380;9.744;2022-12-11T04:15:30;0.00;99.90
18513;DHT22;9385;48.380;9.744;2022-12-11T04:17:57;0.00;99.90
18513;DHT22;9385;48.380;9.744;2022-12-11T04:20:42;0.00;99.90
18513;DHT22;9385;48.380;9.744;2022-12-11T04:23:26;0.00;99.90
18513;DHT22;9385;48.380;9.744;2022-12-11T04:26:12;0.10;99.90
18513;DHT22;9385;48.380;9.744;2022-12-11T04:28:40;0.20;99.90
18513;DHT22;9385;48.380;9.744;2022-12-11T04:31:10;0.20;99.90
18513;DHT22;9385;48.380;9.744;2022-12-11T04:33:39;0.20;99.90
18513;DHT22;9385;48.380;9.744;2022-12-11T04:36:07;0.30;99.90
18513;DHT22;9385;48.380;9.744;2022-12-11T04:38:35;0.30;99.90
18513;DHT22;9385;48.380;9.744;2022-12-11T04:41:04;0.30;99.90
18513;DHT22;9385;48.380;9.744;2022-12-11T04:43:31;0.10;99.90
18513;DHT22;9385;48.380;9.744;2022-12-11T04:46:02;-0.30;99.90
18513;DHT22;9385;48.380;9.744;2022-12-11T04:48:29;-0.60;99.90
18513;DHT22;9385;48.380;9.744;2022-12-11T04:50:57;-0.90;99.90
18513;DHT22;9385;48.380;9.744;2022-12-11T04:53:24;-1.10;99.90
18513;DHT22;9385;48.380;9.744;2022-12-11T04:55:52;-1.30;99.90
18513;DHT22;9385;48.380;9.744;2022-12-11T04:58:19;-1.40;99.90
18513;DHT22;9385;48.380;9.744;2022-12-11T05:00:46;-1.60;99.90
18513;DHT22;9385;48.380;9.744;2022-12-11T05:03:12;-1.90;99.90
18513;DHT22;9385;48.380;9.744;2022-12-11T05:05:39;-2.00;99.90
18513;DHT22;9385;48.380;9.744;2022-12-11T05:08:08;-2.00;99.90
18513;DHT22;9385;48.380;9.744;2022-12-11T05:10:35;-1.80;99.90
18513;DHT22;9385;48.380;9.744;2022-12-11T05:13:01;-1.90;99.90
18513;DHT22;9385;48.380;9.744;2022-12-11T05:15:28;-2.00;99.90
18513;DHT22;9385;48.380;9.744;2022-12-11T05:17:55;-2.10;99.90
18513;DHT22;9385;48.380;9.744;2022-12-11T05:20:22;-2.10;99.90
18513;DHT22;9385;48.380;9.744;2022-12-11T05:22:49;-2.20;99.90
18513;DHT22;9385;48.380;9.744;2022-12-11T05:25:17;-2.30;99.90
18513;DHT22;9385;48.380;9.744;2022-12-11T05:27:44;-2.30;99.90
18513;DHT22;9385;48.380;9.744;2022-12-11T05:30:11;-2.40;99.90
18513;DHT22;9385;48.380;9.744;2022-12-11T05:32:38;-2.50;99.90
18513;DHT22;9385;48.380;9.744;2022-12-11T05:35:06;-2.70;99.90
18513;DHT22;9385;48.380;9.744;2022-12-11T05:37:33;-3.00;99.90
18513;DHT22;9385;48.380;9.744;2022-12-11T05:40:00;-3.10;99.90
18513;DHT22;9385;48.380;9.744;2022-12-11T05:42:28;-3.00;99.90
18513;DHT22;9385;48.380;9.744;2022-12-11T05:44:55;-3.00;99.90
18513;DHT22;9385;48.380;9.744;2022-12-11T05:47:22;-3.00;99.90
18513;DHT22;9385;48.380;9.744;2022-12-11T05:49:50;-3.00;99.90
18513;DHT22;9385;48.380;9.744;2022-12-11T05:52:17;-3.00;99.90
18513;DHT22;9385;48.380;9.744;2022-12-11T05:54:43;-3.10;99.90
18513;DHT22;9385;48.380;9.744;2022-12-11T05:57:13;-3.20;99.90
18513;DHT22;9385;48.380;9.744;2022-12-11T05:59:42;-3.20;99.90
18513;DHT22;9385;48.380;9.744;2022-12-11T06:02:09;-3.20;99.90
18513;DHT22;9385;48.380;9.744;2022-12-11T06:04:37;-3.40;99.90
18513;DHT22;9385;48.380;9.744;2022-12-11T06:07:04;-3.40;99.90
18513;DHT22;9385;48.380;9.744;2022-12-11T06:09:31;-3.40;99.90
18513;DHT22;9385;48.380;9.744;2022-12-11T06:11:58;-3.40;99.90
18513;DHT22;9385;48.380;9.744;2022-12-11T06:14:25;-3.40;99.90
18513;DHT22;9385;48.380;9.744;2022-12-11T06:16:53;-3.40;99.90
18513;DHT22;9385;48.380;9.744;2022-12-11T06:19:20;-3.40;99.90
18513;DHT22;9385;48.380;9.744;2022-12-11T06:21:47;-3.40;99.90
18513;DHT22;9385;48.380;9.744;2022-12-11T06:24:14;-3.50;99.90
18513;DHT22;9385;48.380;9.744;2022-12-11T06:26:41;-3.70;99.90
18513;DHT22;9385;48.380;9.744;2022-12-11T06:29:08;-3.50;99.90
18513;DHT22;9385;48.380;9.744;2022-12-11T06:31:35;-3.50;99.90
18513;DHT22;9385;48.380;9.744;2022-12-11T06:34:03;-3.60;99.90
18513;DHT22;9385;48.380;9.744;2022-12-11T06:36:30;-3.60;99.90
18513;DHT22;9385;48.380;9.744;2022-12-11T06:38:57;-3.90;99.90
18513;DHT22;9385;48.380;9.744;2022-12-11T06:41:24;-4.20;99.90
18513;DHT22;9385;48.380;9.744;2022-12-11T06:43:51;-4.30;99.90
18513;DHT22;9385;48.380;9.744;2022-12-11T06:46:19;-4.40;99.90
18513;DHT22;9385;48.380;9.744;2022-12-11T06:48:46;-4.30;99.90
18513;DHT22;9385;48.380;9.744;2022-12-11T06:51:16;-4.10;99.90
18513;DHT22;9385;48.380;9.744;2022-12-11T06:53:44;-4.20;99.90
18513;DHT22;9385;48.380;9.744;2022-12-11T06:56:12;-4.00;99.90
18513;DHT22;9385;48.380;9.744;2022-12-11T06:58:41;-3.90;99.90
18513;DHT22;9385;48.380;9.744;2022-12-11T07:01:14;-3.80;99.90
18513;DHT22;9385;48.380;9.744;2022-12-11T07:03:43;-3.90;99.90
18513;DHT22;9385;48.380;9.744;2022-12-11T07:06:10;-4.00;99.90
18513;DHT22;9385;48.380;9.744;2022-12-11T07:08:39;-4.10;99.90
18513;DHT22;9385;48.380;9.744;2022-12-11T07:11:08;-4.10;99.90
18513;DHT22;9385;48.380;9.744;2022-12-11T07:13:35;-4.10;99.90
18513;DHT22;9385;48.380;9.744;2022-12-11T07:16:03;-4.20;99.90
18513;DHT22;9385;48.380;9.744;2022-12-11T07:18:35;-4.30;99.90
18513;DHT22;9385;48.380;9.744;2022-12-11T07:21:03;-4.30;99.90
18513;DHT22;9385;48.380;9.744;2022-12-11T07:23:30;-4.30;99.90
18513;DHT22;9385;48.380;9.744;2022-12-11T07:26:03;-4.20;99.90
18513;DHT22;9385;48.380;9.744;2022-12-11T07:28:30;-3.90;99.90
18513;DHT22;9385;48.380;9.744;2022-12-11T07:30:57;-3.70;99.90
18513;DHT22;9385;48.380;9.744;2022-12-11T07:33:24;-3.50;99.90
18513;DHT22;9385;48.380;9.744;2022-12-11T07:35:51;-3.40;99.90
18513;DHT22;9385;48.380;9.744;2022-12-11T07:38:18;-3.40;99.90
18513;DHT22;9385;48.380;9.744;2022-12-11T07:40:44;-3.40;99.90
18513;DHT22;9385;48.380;9.744;2022-12-11T07:43:13;-3.30;99.90
18513;DHT22;9385;48.380;9.744;2022-12-11T07:45:40;-3.30;99.90
18513;DHT22;9385;48.380;9.744;2022-12-11T07:48:07;-3.50;99.90
18513;DHT22;9385;48.380;9.744;2022-12-11T07:50:34;-3.70;99.90
18513;DHT22;9385;48.380;9.744;2022-12-11T07:53:01;-4.00;99.90
18513;DHT22;9385;48.380;9.744;2022-12-11T07:55:28;-4.30;99.90
18513;DHT22;9385;48.380;9.744;2022-12-11T07:57:55;-4.50;99.90
18513;DHT22;9385;48.380;9.744;2022-12-11T08:00:23;-4.80;99.90
18513;DHT22;9385;48.380;9.744;2022-12-11T08:02:50;-4.90;99.90
18513;DHT22;9385;48.380;9.744;2022-12-11T08:05:17;-4.90;99.90
18513;DHT22;9385;48.380;9.744;2022-12-11T08:07:45;-4.90;99.90
18513;DHT22;9385;48.380;9.744;2022-12-11T08:10:12;-4.80;99.90
18513;DHT22;9385;48.380;9.744;2022-12-11T08:12:39;-4.90;99.90
18513;DHT22;9385;48.380;9.744;2022-12-11T08:15:07;-4.90;99.90
18513;DHT22;9385;48.380;9.744;2022-12-11T08:17:36;-4.80;99.90
18513;DHT22;9385;48.380;9.744;2022-12-11T08:20:04;-4.70;99.90
18513;DHT22;9385;48.380;9.744;2022-12-11T08:22:31;-4.40;99.90
18513;DHT22;9385;48.380;9.744;2022-12-11T08:24:58;-4.30;99.90
18513;DHT22;9385;48.380;9.744;2022-12-11T08:27:25;-4.20;99.90
18513;DHT22;9385;48.380;9.744;2022-12-11T08:29:52;-4.20;99.90
18513;DHT22;9385;48.380;9.744;2022-12-11T08:32:18;-4.10;99.90
18513;DHT22;9385;48.380;9.744;2022-12-11T08:34:47;-4.00;99.90
18513;DHT22;9385;48.380;9.744;2022-12-11T08:37:14;-3.80;99.90
18513;DHT22;9385;48.380;9.744;2022-12-11T08:39:41;-3.50;99.90
18513;DHT22;9385;48.380;9.744;2022-12-11T08:42:09;-3.30;99.90
18513;DHT22;9385;48.380;9.744;2022-12-11T08:44:36;-3.20;99.90
18513;DHT22;9385;48.380;9.744;2022-12-11T08:47:03;-3.10;99.90
18513;DHT22;9385;48.380;9.744;2022-12-11T08:49:30;-3.10;99.90
18513;DHT22;9385;48.380;9.744;2022-12-11T08:51:58;-3.00;99.90
18513;DHT22;9385;48.380;9.744;2022-12-11T08:54:25;-3.00;99.90
18513;DHT22;9385;48.380;9.744;2022-12-11T08:56:52;-2.80;99.90
18513;DHT22;9385;48.380;9.744;2022-12-11T08:59:19;-2.80;99.90
18513;DHT22;9385;48.380;9.744;2022-12-11T09:01:46;-2.80;99.90
18513;DHT22;9385;48.380;9.744;2022-12-11T09:04:13;-2.70;99.90
18513;DHT22;9385;48.380;9.744;2022-12-11T09:06:40;-1.70;99.90
18513;DHT22;9385;48.380;9.744;2022-12-11T09:09:08;-2.50;99.90
18513;DHT22;9385;48.380;9.744;2022-12-11T09:11:36;-2.40;99.90
18513;DHT22;9385;48.380;9.744;2022-12-11T09:14:03;-2.20;99.90
18513;DHT22;9385;48.380;9.744;2022-12-11T09:16:31;-2.10;99.90
18513;DHT22;9385;48.380;9.744;2022-12-11T09:18:59;-2.00;99.90
18513;DHT22;9385;48.380;9.744;2022-12-11T09:21:27;-1.90;99.90
18513;DHT22;9385;48.380;9.744;2022-12-11T09:23:57;-1.70;99.90
18513;DHT22;9385;48.380;9.744;2022-12-11T09:26:27;-1.70;99.90
18513;DHT22;9385;48.380;9.744;2022-12-11T09:28:55;-1.80;99.90
18513;DHT22;9385;48.380;9.744;2022-12-11T09:31:24;-1.80;99.90
18513;DHT22;9385;48.380;9.744;2022-12-11T09:33:53;-1.70;99.90
18513;DHT22;9385;48.380;9.744;2022-12-11T09:36:21;-1.60;99.90
18513;DHT22;9385;48.380;9.744;2022-12-11T09:38:48;-1.50;99.90
18513;DHT22;9385;48.380;9.744;2022-12-11T09:41:31;-1.30;99.90
18513;DHT22;9385;48.380;9.744;2022-12-11T09:44:13;-1.00;99.90
18513;DHT22;9385;48.380;9.744;2022-12-11T09:46:42;-0.90;99.90
18513;DHT22;9385;48.380;9.744;2022-12-11T09:49:18;-0.70;99.90
18513;DHT22;9385;48.380;9.744;2022-12-11T09:51:51;-0.60;99.90
18513;DHT22;9385;48.380;9.744;2022-12-11T09:54:22;-0.40;99.90
18513;DHT22;9385;48.380;9.744;2022-12-11T09:56:57;-0.30;99.90
18513;DHT22;9385;48.380;9.744;2022-12-11T09:59:31;-0.20;99.90
18513;DHT22;9385;48.380;9.744;2022-12-11T10:02:12;0.00;99.90
18513;DHT22;9385;48.380;9.744;2022-12-11T10:04:48;0.10;99.90
18513;DHT22;9385;48.380;9.744;2022-12-11T10:07:21;0.20;99.90
18513;DHT22;9385;48.380;9.744;2022-12-11T10:09:55;0.20;99.90
18513;DHT22;9385;48.380;9.744;2022-12-11T10:12:33;0.30;99.90
18513;DHT22;9385;48.380;9.744;2022-12-11T10:15:19;0.40;99.90
18513;DHT22;9385;48.380;9.744;2022-12-11T10:17:51;0.60;99.90
18513;DHT22;9385;48.380;9.744;2022-12-11T10:20:23;0.70;99.90
18513;DHT22;9385;48.380;9.744;2022-12-11T10:22:51;0.80;99.90
18513;DHT22;9385;48.380;9.744;2022-12-11T10:25:21;0.90;99.90
18513;DHT22;9385;48.380;9.744;2022-12-11T10:27:51;1.00;99.90
18513;DHT22;9385;48.380;9.744;2022-12-11T10:30:20;1.10;99.90
18513;DHT22;9385;48.380;9.744;2022-12-11T10:32:53;1.20;99.90
18513;DHT22;9385;48.380;9.744;2022-12-11T10:35:32;1.20;99.90
18513;DHT22;9385;48.380;9.744;2022-12-11T10:38:12;1.20;99.90
18513;DHT22;9385;48.380;9.744;2022-12-11T10:40:44;1.30;99.90
18513;DHT22;9385;48.380;9.744;2022-12-11T10:43:13;1.40;99.90
18513;DHT22;9385;48.380;9.744;2022-12-11T10:45:49;1.40;99.90
18513;DHT22;9385;48.380;9.744;2022-12-11T10:48:17;1.50;99.90
18513;DHT22;9385;48.380;9.744;2022-12-11T10:50:53;1.60;99.90
18513;DHT22;9385;48.380;9.744;2022-12-11T10:53:21;1.60;99.90
18513;DHT22;9385;48.380;9.744;2022-12-11T10:55:48;1.70;99.90
18513;DHT22;9385;48.380;9.744;2022-12-11T10:58:19;1.70;99.90
18513;DHT22;9385;48.380;9.744;2022-12-11T11:00:57;1.70;99.90
18513;DHT22;9385;48.380;9.744;2022-12-11T11:03:26;1.70;99.90
18513;DHT22;9385;48.380;9.744;2022-12-11T11:06:02;1.70;99.90
18513;DHT22;9385;48.380;9.744;2022-12-11T11:08:37;1.80;99.90
18513;DHT22;9385;48.380;9.744;2022-12-11T11:11:05;1.80;99.90
18513;DHT22;9385;48.380;9.744;2022-12-11T11:13:35;1.80;99.90
18513;DHT22;9385;48.380;9.744;2022-12-11T11:16:04;1.80;99.90
18513;DHT22;9385;48.380;9.744;2022-12-11T11:18:32;1.80;99.90
18513;DHT22;9385;48.380;9.744;2022-12-11T11:21:00;1.90;99.90
18513;DHT22;9385;48.380;9.744;2022-12-11T11:23:28;1.90;99.90
18513;DHT22;9385;48.380;9.744;2022-12-11T11:25:57;1.80;99.90
18513;DHT22;9385;48.380;9.744;2022-12-11T11:28:26;1.90;99.90
18513;DHT22;9385;48.380;9.744;2022-12-11T11:30:59;1.90;99.90
18513;DHT22;9385;48.380;9.744;2022-12-11T11:33:29;1.90;99.90
18513;DHT22;9385;48.380;9.744;2022-12-11T11:35:58;1.90;99.90
18513;DHT22;9385;48.380;9.744;2022-12-11T11:38:29;1.80;99.90
18513;DHT22;9385;48.380;9.744;2022-12-11T11:41:03;1.80;99.90
18513;DHT22;9385;48.380;9.744;2022-12-11T11:43:37;1.70;99.90
18513;DHT22;9385;48.380;9.744;2022-12-11T11:46:11;1.80;99.90
18513;DHT22;9385;48.380;9.744;2022-12-11T11:48:48;1.80;99.90
18513;DHT22;9385;48.380;9.744;2022-12-11T11:51:22;1.80;99.90
18513;DHT22;9385;48.380;9.744;2022-12-11T11:53:53;1.80;99.90
18513;DHT22;9385;48.380;9.744;2022-12-11T11:56:24;1.70;99.90
18513;DHT22;9385;48.380;9.744;2022-12-11T11:58:58;1.60;99.90
18513;DHT22;9385;48.380;9.744;2022-12-11T12:01:28;1.60;99.90
18513;DHT22;9385;48.380;9.744;2022-12-11T12:03:56;1.60;99.90
18513;DHT22;9385;48.380;9.744;2022-12-11T12:06:35;1.50;99.90
18513;DHT22;9385;48.380;9.744;2022-12-11T12:09:13;1.50;99.90
18513;DHT22;9385;48.380;9.744;2022-12-11T12:11:48;1.50;99.90
18513;DHT22;9385;48.380;9.744;2022-12-11T12:14:20;1.50;99.90
18513;DHT22;9385;48.380;9.744;2022-12-11T12:17:00;1.50;99.90
18513;DHT22;9385;48.380;9.744;2022-12-11T12:19:45;1.50;99.90
18513;DHT22;9385;48.380;9.744;2022-12-11T12:22:20;1.50;99.90
18513;DHT22;9385;48.380;9.744;2022-12-11T12:25:00;1.60;99.90
18513;DHT22;9385;48.380;9.744;2022-12-11T12:27:33;1.60;99.90
18513;DHT22;9385;48.380;9.744;2022-12-11T12:30:07;1.60;99.90
18513;DHT22;9385;48.380;9.744;2022-12-11T12:32:43;1.60;99.90
18513;DHT22;9385;48.380;9.744;2022-12-11T12:35:26;1.70;99.90
18513;DHT22;9385;48.380;9.744;2022-12-11T12:38:00;1.70;99.90
18513;DHT22;9385;48.380;9.744;2022-12-11T12:40:33;1.80;99.90
18513;DHT22;9385;48.380;9.744;2022-12-11T12:43:09;1.80;99.90
18513;DHT22;9385;48.380;9.744;2022-12-11T12:45:46;1.80;99.90
18513;DHT22;9385;48.380;9.744;2022-12-11T12:48:19;1.80;99.90
18513;DHT22;9385;48.380;9.744;2022-12-11T12:50:48;1.80;99.90
18513;DHT22;9385;48.380;9.744;2022-12-11T12:53:18;1.80;99.90
18513;DHT22;9385;48.380;9.744;2022-12-11T12:55:47;1.80;99.90
18513;DHT22;9385;48.380;9.744;2022-12-11T12:58:26;1.80;99.90
18513;DHT22;9385;48.380;9.744;2022-12-11T13:01:03;1.80;99.90
18513;DHT22;9385;48.380;9.744;2022-12-11T13:03:36;1.90;99.90
18513;DHT22;9385;48.380;9.744;2022-12-11T13:06:14;1.90;99.90
18513;DHT22;9385;48.380;9.744;2022-12-11T13:08:45;2.10;99.90
18513;DHT22;9385;48.380;9.744;2022-12-11T13:11:15;2.10;99.90
18513;DHT22;9385;48.380;9.744;2022-12-11T13:13:46;2.20;99.90
18513;DHT22;9385;48.380;9.744;2022-12-11T13:16:25;2.10;99.90
18513;DHT22;9385;48.380;9.744;2022-12-11T13:18:54;2.10;99.90
18513;DHT22;9385;48.380;9.744;2022-12-11T13:21:25;2.10;99.90
18513;DHT22;9385;48.380;9.744;2022-12-11T13:23:53;2.20;99.90
18513;DHT22;9385;48.380;9.744;2022-12-11T13:26:28;2.20;99.90
18513;DHT22;9385;48.380;9.744;2022-12-11T13:28:55;2.20;99.90
18513;DHT22;9385;48.380;9.744;2022-12-11T13:31:33;2.20;99.90
18513;DHT22;9385;48.380;9.744;2022-12-11T13:34:15;2.20;99.90
18513;DHT22;9385;48.380;9.744;2022-12-11T13:36:46;2.20;99.90
18513;DHT22;9385;48.380;9.744;2022-12-11T13:39:17;2.10;99.90
18513;DHT22;9385;48.380;9.744;2022-12-11T13:41:46;2.10;99.90
18513;DHT22;9385;48.380;9.744;2022-12-11T13:44:19;2.10;99.90
18513;DHT22;9385;48.380;9.744;2022-12-11T13:46:49;2.10;99.90
18513;DHT22;9385;48.380;9.744;2022-12-11T13:49:27;2.00;99.90
18513;DHT22;9385;48.380;9.744;2022-12-11T13:51:56;1.90;99.90
18513;DHT22;9385;48.380;9.744;2022-12-11T13:54:24;1.70;99.90
18513;DHT22;9385;48.380;9.744;2022-12-11T13:56:56;1.40;99.90
18513;DHT22;9385;48.380;9.744;2022-12-11T13:59:26;1.30;99.90
18513;DHT22;9385;48.380;9.744;2022-12-11T14:01:56;1.00;99.90
18513;DHT22;9385;48.380;9.744;2022-12-11T14:04:26;0.80;99.90
18513;DHT22;9385;48.380;9.744;2022-12-11T14:06:55;0.80;99.90
18513;DHT22;9385;48.380;9.744;2022-12-11T14:09:24;0.90;99.90
18513;DHT22;9385;48.380;9.744;2022-12-11T14:11:52;1.10;99.90
18513;DHT22;9385;48.380;9.744;2022-12-11T14:14:26;1.30;99.90
18513;DHT22;9385;48.380;9.744;2022-12-11T14:16:54;1.50;99.90
18513;DHT22;9385;48.380;9.744;2022-12-11T14:19:22;1.60;99.90
18513;DHT22;9385;48.380;9.744;2022-12-11T14:22:02;1.70;99.90
18513;DHT22;9385;48.380;9.744;2022-12-11T14:24:30;1.70;99.90
18513;DHT22;9385;48.380;9.744;2022-12-11T14:26:58;1.70;99.90
18513;DHT22;9385;48.380;9.744;2022-12-11T14:29:27;1.60;99.90
18513;DHT22;9385;48.380;9.744;2022-12-11T14:31:56;1.60;99.90
18513;DHT22;9385;48.380;9.744;2022-12-11T14:34:28;1.60;99.90
18513;DHT22;9385;48.380;9.744;2022-12-11T14:36:57;1.60;99.90
18513;DHT22;9385;48.380;9.744;2022-12-11T14:39:31;1.60;99.90
18513;DHT22;9385;48.380;9.744;2022-12-11T14:42:05;1.70;99.90
18513;DHT22;9385;48.380;9.744;2022-12-11T14:44:39;1.70;99.90
18513;DHT22;9385;48.380;9.744;2022-12-11T14:47:12;1.60;99.90
18513;DHT22;9385;48.380;9.744;2022-12-11T14:49:45;1.60;99.90
18513;DHT22;9385;48.380;9.744;2022-12-11T14:52:15;1.70;99.90
18513;DHT22;9385;48.380;9.744;2022-12-11T14:54:48;1.60;99.90
18513;DHT22;9385;48.380;9.744;2022-12-11T14:57:20;1.50;99.90
18513;DHT22;9385;48.380;9.744;2022-12-11T14:59:49;1.50;99.90
18513;DHT22;9385;48.380;9.744;2022-12-11T15:02:23;1.30;99.90
18513;DHT22;9385;48.380;9.744;2022-12-11T15:05:05;1.30;99.90
18513;DHT22;9385;48.380;9.744;2022-12-11T15:07:33;1.20;99.90
18513;DHT22;9385;48.380;9.744;2022-12-11T15:10:02;1.00;99.90
18513;DHT22;9385;48.380;9.744;2022-12-11T15:12:30;0.90;99.90
18513;DHT22;9385;48.380;9.744;2022-12-11T15:14:59;0.70;99.90
18513;DHT22;9385;48.380;9.744;2022-12-11T15:17:27;0.70;99.90
18513;DHT22;9385;48.380;9.744;2022-12-11T15:19:59;0.70;99.90
18513;DHT22;9385;48.380;9.744;2022-12-11T15:22:30;0.70;99.90
18513;DHT22;9385;48.380;9.744;2022-12-11T15:24:58;0.70;99.90
18513;DHT22;9385;48.380;9.744;2022-12-11T15:27:31;0.70;99.90
18513;DHT22;9385;48.380;9.744;2022-12-11T15:29:58;0.70;99.90
18513;DHT22;9385;48.380;9.744;2022-12-11T15:32:26;0.80;99.90
18513;DHT22;9385;48.380;9.744;2022-12-11T15:34:54;0.90;99.90
18513;DHT22;9385;48.380;9.744;2022-12-11T15:37:22;1.00;99.90
18513;DHT22;9385;48.380;9.744;2022-12-11T15:39:50;1.10;99.90
18513;DHT22;9385;48.380;9.744;2022-12-11T15:42:24;1.00;99.90
18513;DHT22;9385;48.380;9.744;2022-12-11T15:44:53;0.90;99.90
18513;DHT22;9385;48.380;9.744;2022-12-11T15:47:23;0.80;99.90
18513;DHT22;9385;48.380;9.744;2022-12-11T15:49:53;0.70;99.90
18513;DHT22;9385;48.380;9.744;2022-12-11T15:52:21;0.70;99.90
18513;DHT22;9385;48.380;9.744;2022-12-11T15:54:48;0.50;99.90
18513;DHT22;9385;48.380;9.744;2022-12-11T15:57:20;0.40;99.90
18513;DHT22;9385;48.380;9.744;2022-12-11T15:59:50;0.10;99.90
18513;DHT22;9385;48.380;9.744;2022-12-11T16:02:19;-0.10;99.90
18513;DHT22;9385;48.380;9.744;2022-12-11T16:04:48;-0.10;99.90
18513;DHT22;9385;48.380;9.744;2022-12-11T16:07:17;-0.20;99.90
18513;DHT22;9385;48.380;9.744;2022-12-11T16:09:44;-0.40;99.90